createdAt,value
2017-09-23T00:01:29.641Z,71.30
2017-09-23T00:03:56.122Z,70.70
2017-09-23T00:06:22.641Z,70.40
2017-09-23T00:08:49.105Z,70.00
2017-09-23T00:11:15.553Z,69.70
2017-09-23T00:13:42.122Z,69.80
2017-09-23T00:16:09.317Z,69.60
2017-09-23T00:18:35.810Z,69.60
2017-09-23T00:21:03.034Z,70.20
2017-09-23T00:23:29.516Z,70.00
2017-09-23T00:25:56.031Z,70.60
2017-09-23T00:28:22.572Z,70.90
2017-09-23T00:30:49.045Z,70.70
2017-09-23T00:33:15.597Z,70.80
2017-09-23T00:35:42.809Z,71.00
2017-09-23T00:38:09.297Z,71.80
2017-09-23T00:40:35.837Z,72.80
2017-09-23T00:43:02.334Z,73.60
2017-09-23T00:45:28.830Z,71.80
2017-09-23T00:47:56.081Z,69.80
2017-09-23T00:50:23.356Z,69.60
2017-09-23T00:52:49.892Z,69.60
2017-09-23T00:55:16.457Z,69.70
2017-09-23T00:57:43.873Z,69.40
2017-09-23T01:00:10.358Z,69.40
2017-09-23T01:02:37.604Z,72.50
2017-09-23T01:05:04.084Z,72.40
2017-09-23T01:07:30.631Z,72.50
2017-09-23T01:09:57.133Z,74.30
2017-09-23T01:12:24.388Z,74.10
2017-09-23T01:14:51.626Z,75.10
2017-09-23T01:17:18.109Z,74.30
2017-09-23T01:19:44.613Z,73.90
2017-09-23T01:22:11.122Z,72.60
2017-09-23T01:24:38.419Z,72.70
2017-09-23T01:27:04.962Z,72.80
2017-09-23T01:29:31.537Z,71.60
2017-09-23T01:31:58.081Z,73.70
2017-09-23T01:34:24.625Z,74.00
2017-09-23T01:36:51.085Z,73.60
2017-09-23T01:39:17.533Z,73.20
2017-09-23T01:41:44.085Z,73.00
2017-09-23T01:44:10.572Z,73.00
2017-09-23T01:46:37.810Z,72.40
2017-09-23T01:49:04.364Z,72.40
2017-09-23T01:51:30.804Z,72.20
2017-09-23T01:53:57.300Z,72.40
2017-09-23T01:56:23.793Z,72.20
2017-09-23T01:58:50.266Z,72.90
2017-09-23T02:01:16.730Z,74.50
2017-09-23T02:03:43.246Z,75.80
2017-09-23T02:06:10.486Z,76.20
2017-09-23T02:08:37.108Z,76.00
2017-09-23T02:11:03.572Z,74.90
2017-09-23T02:13:30.828Z,74.10
2017-09-23T02:15:58.062Z,75.00
2017-09-23T02:18:25.300Z,76.80
2017-09-23T02:20:51.844Z,76.80
2017-09-23T02:23:18.323Z,77.10
2017-09-23T02:25:44.784Z,77.60
2017-09-23T02:28:11.297Z,77.50
2017-09-23T02:30:37.812Z,77.50
2017-09-23T02:33:05.005Z,77.00
2017-09-23T02:35:31.493Z,77.00
2017-09-23T02:37:57.985Z,75.90
2017-09-23T02:40:24.485Z,74.90
2017-09-23T02:42:51.698Z,74.20
2017-09-23T02:45:18.201Z,74.10
2017-09-23T02:47:44.693Z,74.30
2017-09-23T02:50:11.882Z,77.60
2017-09-23T02:52:38.353Z,77.50
2017-09-23T02:55:04.870Z,77.30
2017-09-23T02:57:31.358Z,76.50
2017-09-23T02:59:57.864Z,75.70
2017-09-23T03:02:24.326Z,76.30
2017-09-23T03:04:50.788Z,76.80
2017-09-23T03:07:17.265Z,76.90
2017-09-23T03:09:44.469Z,76.40
2017-09-23T03:12:10.972Z,76.40
2017-09-23T03:14:37.433Z,76.30
2017-09-23T03:17:03.921Z,76.30
2017-09-23T03:19:31.141Z,74.30
2017-09-23T03:21:57.672Z,74.30
2017-09-23T03:24:24.177Z,73.90
2017-09-23T03:26:50.630Z,73.10
2017-09-23T03:29:17.896Z,72.90
2017-09-23T03:31:45.161Z,72.10
2017-09-23T03:34:11.615Z,72.10
2017-09-23T03:36:38.093Z,72.70
2017-09-23T03:39:04.589Z,73.90
2017-09-23T03:41:31.788Z,73.70
2017-09-23T03:43:59.039Z,73.50
2017-09-23T03:46:25.508Z,73.50
2017-09-23T03:48:52.034Z,72.70
2017-09-23T03:51:18.526Z,73.80
2017-09-23T03:53:45.037Z,73.90
2017-09-23T03:56:11.503Z,73.90
2017-09-23T03:58:38.006Z,73.40
2017-09-23T04:01:04.496Z,74.00
2017-09-23T04:03:31.693Z,77.10
2017-09-23T04:05:58.189Z,77.10
2017-09-23T04:08:24.664Z,78.40
2017-09-23T04:10:51.891Z,77.40
2017-09-23T04:13:19.093Z,76.40
2017-09-23T04:15:45.596Z,76.40
2017-09-23T04:18:12.793Z,75.70
2017-09-23T04:20:39.254Z,75.70
2017-09-23T04:23:05.775Z,74.40
2017-09-23T04:25:32.275Z,74.50
2017-09-23T04:27:58.762Z,74.00
2017-09-23T04:30:25.994Z,72.50
2017-09-23T04:32:53.214Z,72.90
2017-09-23T04:35:19.700Z,72.90
2017-09-23T04:37:46.128Z,73.20
2017-09-23T04:40:12.541Z,73.10
2017-09-23T04:42:38.957Z,74.00
2017-09-23T04:45:05.406Z,75.70
2017-09-23T04:47:31.851Z,75.80
2017-09-23T04:49:58.333Z,76.30
2017-09-23T04:52:24.771Z,77.20
2017-09-23T04:54:51.175Z,78.00
2017-09-23T04:57:18.402Z,77.40
2017-09-23T04:59:44.850Z,77.40
2017-09-23T05:02:11.328Z,77.60
2017-09-23T05:04:37.781Z,77.30
2017-09-23T05:07:04.188Z,77.10
2017-09-23T05:09:30.653Z,76.80
2017-09-23T05:11:57.105Z,76.70
2017-09-23T05:14:23.529Z,76.30
2017-09-23T05:16:49.944Z,76.00
2017-09-23T05:19:16.433Z,75.50
2017-09-23T05:21:42.905Z,75.10
2017-09-23T05:24:09.353Z,75.10
2017-09-23T05:26:36.577Z,74.90
2017-09-23T05:29:03.077Z,74.90
2017-09-23T05:31:30.218Z,75.80
2017-09-23T05:33:57.402Z,77.10
2017-09-23T05:36:23.811Z,77.00
2017-09-23T05:38:50.969Z,78.80
2017-09-23T05:41:17.458Z,78.70
2017-09-23T05:43:43.870Z,78.70
2017-09-23T05:46:10.303Z,78.30
2017-09-23T05:48:36.750Z,77.60
2017-09-23T05:51:03.245Z,77.60
2017-09-23T05:53:29.693Z,77.50
2017-09-23T05:55:56.119Z,77.10
2017-09-23T05:58:22.561Z,76.30
2017-09-23T06:00:49.013Z,76.00
2017-09-23T06:03:15.460Z,76.00
2017-09-23T06:05:41.908Z,75.50
2017-09-23T06:08:08.410Z,76.90
2017-09-23T06:10:34.854Z,76.90
2017-09-23T06:13:01.290Z,76.60
2017-09-23T06:15:27.706Z,77.10
2017-09-23T06:17:54.112Z,76.90
2017-09-23T06:20:20.545Z,76.40
2017-09-23T06:22:47.009Z,77.10
2017-09-23T06:25:13.418Z,77.30
2017-09-23T06:27:40.671Z,76.10
2017-09-23T06:30:07.947Z,75.70
2017-09-23T06:32:34.385Z,75.70
2017-09-23T06:35:00.825Z,76.90
2017-09-23T06:37:27.287Z,73.50
2017-09-23T06:39:54.490Z,72.10
2017-09-23T06:42:20.925Z,72.10
2017-09-23T06:44:47.372Z,70.50
2017-09-23T06:47:13.817Z,70.70
2017-09-23T06:49:41.090Z,71.00
2017-09-23T06:52:08.226Z,69.60
2017-09-23T06:54:35.422Z,70.60
2017-09-23T06:57:01.902Z,70.00
2017-09-23T06:59:28.373Z,68.30
2017-09-23T07:01:54.821Z,68.20
2017-09-23T07:04:21.310Z,68.10
2017-09-23T07:06:48.501Z,67.20
2017-09-23T07:09:14.973Z,67.10
2017-09-23T07:11:41.452Z,68.10
2017-09-23T07:14:07.861Z,67.60
2017-09-23T07:16:34.331Z,66.90
2017-09-23T07:19:00.805Z,66.20
2017-09-23T07:21:27.225Z,64.50
2017-09-23T07:23:53.710Z,63.40
2017-09-23T07:26:20.169Z,60.00
2017-09-23T07:28:47.350Z,59.80
2017-09-23T07:31:13.799Z,59.80
2017-09-23T07:33:40.237Z,58.20
2017-09-23T07:36:06.674Z,58.40
2017-09-23T07:38:33.898Z,56.90
2017-09-23T07:41:01.125Z,56.20
2017-09-23T07:43:27.545Z,56.20
2017-09-23T07:45:53.994Z,54.90
2017-09-23T07:48:20.421Z,54.00
2017-09-23T07:50:46.911Z,54.50
2017-09-23T07:53:14.078Z,52.00
2017-09-23T07:55:41.236Z,51.60
2017-09-23T07:58:07.736Z,51.50
2017-09-23T08:00:34.205Z,49.20
2017-09-23T08:03:00.617Z,50.00
2017-09-23T08:05:27.081Z,47.30
2017-09-23T08:07:53.893Z,48.40
2017-09-23T08:10:20.350Z,47.80
2017-09-23T08:12:46.845Z,46.60
2017-09-23T08:15:13.309Z,45.10
2017-09-23T08:17:40.465Z,42.30
2017-09-23T08:20:06.903Z,42.30
2017-09-23T08:22:33.465Z,44.40
2017-09-23T08:24:59.907Z,44.50
2017-09-23T08:27:26.327Z,44.10
2017-09-23T08:29:52.782Z,42.00
2017-09-23T08:32:19.218Z,42.40
2017-09-23T08:34:45.662Z,41.60
2017-09-23T08:37:12.068Z,41.10
2017-09-23T08:39:38.542Z,40.00
2017-09-23T08:42:05.746Z,39.90
2017-09-23T08:44:32.168Z,39.90
2017-09-23T08:46:58.713Z,37.30
2017-09-23T08:49:25.149Z,40.40
2017-09-23T08:51:51.595Z,39.10
2017-09-23T08:54:18.049Z,37.30
2017-09-23T08:56:44.449Z,37.30
2017-09-23T08:59:10.906Z,37.60
2017-09-23T09:01:37.368Z,36.60
2017-09-23T09:04:03.818Z,36.40
2017-09-23T09:06:30.274Z,36.50
2017-09-23T09:08:56.733Z,35.70
2017-09-23T09:11:23.156Z,36.00
2017-09-23T09:13:49.578Z,33.70
2017-09-23T09:16:16.041Z,36.00
2017-09-23T09:18:42.497Z,34.70
2017-09-23T09:21:09.668Z,34.20
2017-09-23T09:23:36.113Z,34.10
2017-09-23T09:26:02.569Z,33.40
2017-09-23T09:28:29.775Z,31.70
2017-09-23T09:30:56.289Z,31.70
2017-09-23T09:33:23.531Z,31.60
2017-09-23T09:35:49.957Z,31.50
2017-09-23T09:38:16.435Z,31.40
2017-09-23T09:40:42.854Z,31.30
2017-09-23T09:43:09.278Z,31.60
2017-09-23T09:45:35.765Z,30.90
2017-09-23T09:48:02.197Z,30.90
2017-09-23T09:50:28.625Z,30.80
2017-09-23T09:52:55.074Z,31.80
2017-09-23T09:55:21.569Z,31.70
2017-09-23T09:57:48.026Z,31.60
2017-09-23T10:00:14.553Z,32.70
2017-09-23T10:02:41.025Z,32.20
2017-09-23T10:05:07.451Z,34.00
2017-09-23T10:07:33.889Z,36.30
2017-09-23T10:10:00.325Z,35.70
2017-09-23T10:12:39.201Z,34.60
2017-09-23T10:15:05.701Z,33.60
2017-09-23T10:17:32.903Z,33.80
2017-09-23T10:19:59.333Z,33.80
2017-09-23T10:22:25.772Z,33.20
2017-09-23T10:24:52.174Z,31.90
2017-09-23T10:27:18.673Z,31.90
2017-09-23T10:29:45.087Z,31.20
2017-09-23T10:32:11.583Z,30.80
2017-09-23T10:34:38.056Z,30.50
2017-09-23T10:37:04.465Z,30.50
2017-09-23T10:39:30.905Z,30.90
2017-09-23T10:41:57.320Z,30.00
2017-09-23T10:44:23.769Z,30.00
2017-09-23T10:46:50.242Z,30.00
2017-09-23T10:49:16.667Z,29.80
2017-09-23T10:51:43.114Z,30.10
2017-09-23T10:54:10.288Z,29.80
2017-09-23T10:56:36.702Z,29.80
2017-09-23T10:59:03.880Z,31.30
2017-09-23T11:01:30.290Z,31.20
2017-09-23T11:03:56.797Z,31.50
2017-09-23T11:06:23.208Z,31.90
2017-09-23T11:08:49.624Z,32.00
2017-09-23T11:11:16.066Z,33.00
2017-09-23T11:13:42.550Z,35.70
2017-09-23T11:16:09.039Z,37.70
2017-09-23T11:18:35.482Z,37.50
2017-09-23T11:21:01.932Z,37.40
2017-09-23T11:23:29.104Z,37.90
2017-09-23T11:25:56.316Z,39.30
2017-09-23T11:28:22.734Z,39.20
2017-09-23T11:30:49.149Z,39.20
2017-09-23T11:33:15.743Z,38.60
2017-09-23T11:35:42.918Z,38.30
2017-09-23T11:38:09.325Z,38.20
2017-09-23T11:40:36.517Z,38.20
2017-09-23T11:43:02.977Z,38.00
2017-09-23T11:45:29.506Z,39.30
2017-09-23T11:47:55.963Z,39.40
2017-09-23T11:50:23.150Z,41.60
2017-09-23T11:52:49.606Z,41.50
2017-09-23T11:55:15.998Z,41.50
2017-09-23T11:57:43.254Z,40.80
2017-09-23T12:00:10.424Z,41.30
2017-09-23T12:02:36.885Z,41.20
2017-09-23T12:05:03.371Z,41.10
2017-09-23T12:07:30.525Z,41.10
2017-09-23T12:09:57.033Z,41.00
2017-09-23T12:12:23.465Z,40.90
2017-09-23T12:14:49.882Z,41.00
2017-09-23T12:17:16.318Z,41.00
2017-09-23T12:19:42.761Z,40.80
2017-09-23T12:22:09.177Z,41.60
2017-09-23T12:24:35.681Z,42.30
2017-09-23T12:27:02.124Z,41.30
2017-09-23T12:29:28.546Z,42.40
2017-09-23T12:31:55.006Z,43.90
2017-09-23T12:34:21.479Z,44.70
2017-09-23T12:36:48.645Z,44.80
2017-09-23T12:39:15.107Z,44.80
2017-09-23T12:41:41.505Z,44.20
2017-09-23T12:44:08.661Z,43.80
2017-09-23T12:46:35.119Z,43.70
2017-09-23T12:49:01.725Z,43.50
2017-09-23T12:51:28.895Z,43.70
2017-09-23T12:53:55.357Z,43.70
2017-09-23T12:56:21.780Z,43.90
2017-09-23T12:58:48.236Z,44.80
2017-09-23T13:01:15.482Z,46.10
2017-09-23T13:03:41.926Z,46.10
2017-09-23T13:06:09.844Z,46.60
2017-09-23T13:08:36.306Z,46.40
2017-09-23T13:11:02.846Z,47.60
2017-09-23T13:13:29.325Z,46.80
2017-09-23T13:15:56.493Z,46.40
2017-09-23T13:18:22.903Z,46.40
2017-09-23T13:20:50.149Z,46.50
2017-09-23T13:23:16.632Z,46.50
2017-09-23T13:25:43.072Z,47.20
2017-09-23T13:28:10.253Z,47.30
2017-09-23T13:30:36.657Z,47.20
2017-09-23T13:33:03.103Z,46.40
2017-09-23T13:35:29.581Z,47.10
2017-09-23T13:37:56.037Z,47.20
2017-09-23T13:40:22.489Z,46.10
2017-09-23T13:42:48.919Z,46.30
2017-09-23T13:45:15.346Z,45.80
2017-09-23T13:47:41.783Z,45.60
2017-09-23T13:50:08.941Z,46.40
2017-09-23T13:52:35.392Z,46.40
2017-09-23T13:55:01.817Z,46.80
2017-09-23T13:57:29.043Z,45.50
2017-09-23T13:59:55.518Z,45.50
2017-09-23T14:02:22.018Z,45.50
2017-09-23T14:04:48.478Z,45.40
2017-09-23T14:07:14.904Z,45.30
2017-09-23T14:09:41.322Z,45.00
2017-09-23T14:12:07.834Z,45.60
2017-09-23T14:14:34.257Z,46.70
2017-09-23T14:17:00.718Z,47.90
2017-09-23T14:19:27.162Z,47.50
2017-09-23T14:21:53.603Z,47.90
2017-09-23T14:24:20.052Z,48.30
2017-09-23T14:26:47.313Z,48.00
2017-09-23T14:29:14.525Z,48.50
2017-09-23T14:31:40.946Z,48.50
2017-09-23T14:34:07.378Z,48.10
2017-09-23T14:36:33.842Z,47.70
2017-09-23T14:39:00.242Z,48.10
2017-09-23T14:41:26.687Z,47.80
2017-09-23T14:43:53.108Z,47.60
2017-09-23T14:46:19.569Z,48.10
2017-09-23T14:48:46.048Z,48.40
2017-09-23T14:51:12.499Z,48.30
2017-09-23T14:53:38.900Z,48.20
2017-09-23T14:56:06.097Z,48.30
2017-09-23T14:58:32.537Z,48.20
2017-09-23T15:00:58.998Z,48.60
2017-09-23T15:03:25.473Z,48.00
2017-09-23T15:05:51.889Z,48.10
2017-09-23T15:08:18.420Z,47.90
2017-09-23T15:10:45.584Z,48.50
2017-09-23T15:13:12.048Z,48.40
2017-09-23T15:15:38.521Z,48.20
2017-09-23T15:18:05.732Z,48.00
2017-09-23T15:20:32.157Z,47.90
2017-09-23T15:22:58.577Z,48.00
2017-09-23T15:25:25.067Z,48.40
2017-09-23T15:27:52.256Z,49.30
2017-09-23T15:30:18.705Z,49.30
2017-09-23T15:32:45.246Z,49.30
2017-09-23T15:35:11.705Z,49.20
2017-09-23T15:37:38.145Z,49.40
2017-09-23T15:40:04.649Z,49.70
2017-09-23T15:42:31.104Z,49.80
2017-09-23T15:44:57.561Z,49.70
2017-09-23T15:47:24.003Z,49.80
2017-09-23T15:49:51.222Z,49.90
2017-09-23T15:52:17.660Z,49.80
2017-09-23T15:54:44.092Z,50.70
2017-09-23T15:57:10.598Z,51.20
2017-09-23T15:59:37.045Z,50.60
2017-09-23T16:02:03.512Z,50.30
2017-09-23T16:04:29.944Z,50.70
2017-09-23T16:06:56.413Z,50.70
2017-09-23T16:09:22.910Z,50.80
2017-09-23T16:11:50.106Z,50.70
2017-09-23T16:14:16.559Z,50.70
2017-09-23T16:16:43.040Z,50.70
2017-09-23T16:19:10.228Z,51.00
2017-09-23T16:21:36.648Z,50.90
2017-09-23T16:24:03.113Z,51.10
2017-09-23T16:26:29.534Z,51.10
2017-09-23T16:28:55.956Z,51.20
2017-09-23T16:31:22.422Z,51.10
2017-09-23T16:33:48.904Z,51.00
2017-09-23T16:36:15.388Z,51.30
2017-09-23T16:38:41.849Z,51.40
2017-09-23T16:41:09.049Z,52.50
2017-09-23T16:43:36.209Z,51.80
2017-09-23T16:46:02.660Z,52.20
2017-09-23T16:48:29.111Z,52.20
2017-09-23T16:50:56.281Z,52.90
2017-09-23T16:53:22.697Z,52.90
2017-09-23T16:55:49.875Z,53.90
2017-09-23T16:58:16.330Z,53.20
2017-09-23T17:00:42.755Z,53.50
2017-09-23T17:03:09.247Z,53.60
2017-09-23T17:05:36.413Z,54.40
2017-09-23T17:08:02.881Z,54.30
2017-09-23T17:10:29.413Z,54.10
2017-09-23T17:12:55.856Z,53.80
2017-09-23T17:15:22.331Z,54.00
2017-09-23T17:17:49.520Z,54.30
2017-09-23T17:20:15.934Z,54.90
2017-09-23T17:22:42.424Z,54.50
2017-09-23T17:25:08.829Z,54.40
2017-09-23T17:27:35.298Z,54.30
2017-09-23T17:30:01.702Z,54.40
2017-09-23T17:32:28.144Z,54.40
2017-09-23T17:34:54.640Z,54.40
2017-09-23T17:37:21.147Z,54.60
2017-09-23T17:39:48.401Z,54.30
2017-09-23T17:42:14.846Z,54.30
2017-09-23T17:44:41.316Z,54.50
2017-09-23T17:47:07.792Z,54.70
2017-09-23T17:49:34.959Z,54.90
2017-09-23T17:52:02.137Z,55.20
2017-09-23T17:54:28.587Z,55.20
2017-09-23T17:56:55.064Z,55.70
2017-09-23T17:59:21.515Z,55.50
2017-09-23T18:01:47.995Z,55.60
2017-09-23T18:04:15.185Z,55.70
2017-09-23T18:06:42.387Z,55.90
2017-09-23T18:09:08.822Z,55.70
2017-09-23T18:11:35.279Z,55.90
2017-09-23T18:14:01.699Z,56.40
2017-09-23T18:16:28.161Z,56.60
2017-09-23T18:18:54.571Z,56.50
2017-09-23T18:21:21.044Z,56.10
2017-09-23T18:23:48.226Z,56.30
2017-09-23T18:26:14.718Z,56.20
2017-09-23T18:28:41.880Z,56.30
2017-09-23T18:31:08.308Z,56.20
2017-09-23T18:33:35.489Z,56.30
2017-09-23T18:36:01.907Z,56.30
2017-09-23T18:38:28.398Z,56.10
2017-09-23T18:40:55.577Z,56.90
2017-09-23T18:43:22.038Z,56.30
2017-09-23T18:45:48.570Z,56.90
2017-09-23T18:48:15.065Z,56.90
2017-09-23T18:50:42.273Z,57.10
2017-09-23T18:53:08.751Z,57.10
2017-09-23T18:55:35.944Z,57.20
2017-09-23T18:58:02.366Z,57.20
2017-09-23T19:00:28.930Z,56.80
2017-09-23T19:02:56.146Z,56.90
2017-09-23T19:05:22.625Z,56.90
2017-09-23T19:07:49.081Z,56.70
2017-09-23T19:10:15.517Z,56.40
2017-09-23T19:12:42.731Z,56.40
2017-09-23T19:15:09.233Z,56.50
2017-09-23T19:17:35.691Z,56.30
2017-09-23T19:20:02.147Z,56.20
2017-09-23T19:22:28.579Z,56.20
2017-09-23T19:24:55.801Z,56.40
2017-09-23T19:27:22.328Z,56.30
2017-09-23T19:29:48.822Z,56.00
2017-09-23T19:32:16.025Z,56.20
2017-09-23T19:34:42.428Z,56.20
2017-09-23T19:37:08.873Z,56.10
2017-09-23T19:39:35.340Z,56.90
2017-09-23T19:42:01.809Z,56.50
2017-09-23T19:44:28.263Z,57.90
2017-09-23T19:46:54.723Z,58.20
2017-09-23T19:49:21.194Z,58.40
2017-09-23T19:51:47.627Z,58.10
2017-09-23T19:54:14.877Z,58.80
2017-09-23T19:56:42.080Z,59.30
2017-09-23T19:59:08.625Z,59.30
2017-09-23T20:01:35.095Z,59.00
2017-09-23T20:04:01.532Z,59.10
2017-09-23T20:06:28.026Z,59.60
2017-09-23T20:08:54.472Z,59.50
2017-09-23T20:11:20.918Z,59.20
2017-09-23T20:13:47.358Z,58.90
2017-09-23T20:16:13.806Z,58.90
2017-09-23T20:18:40.995Z,58.60
2017-09-23T20:21:07.458Z,58.50
2017-09-23T20:23:33.940Z,58.90
2017-09-23T20:26:00.389Z,58.90
2017-09-23T20:28:26.812Z,58.90
2017-09-23T20:30:53.339Z,58.80
2017-09-23T20:33:19.841Z,58.50
2017-09-23T20:35:46.307Z,58.50
2017-09-23T20:38:13.527Z,58.60
2017-09-23T20:40:39.970Z,58.60
2017-09-23T20:43:06.444Z,58.70
2017-09-23T20:45:32.874Z,58.60
2017-09-23T20:47:59.337Z,59.10
2017-09-23T20:50:25.808Z,59.20
2017-09-23T20:52:52.991Z,59.50
2017-09-23T20:55:19.404Z,59.50
2017-09-23T20:57:46.614Z,59.30
2017-09-23T21:00:13.058Z,59.30
2017-09-23T21:02:39.517Z,59.00
2017-09-23T21:05:05.981Z,59.00
2017-09-23T21:07:32.455Z,60.50
2017-09-23T21:09:58.877Z,60.60
2017-09-23T21:12:25.300Z,60.60
2017-09-23T21:14:51.745Z,61.10
2017-09-23T21:17:18.885Z,60.80
2017-09-23T21:19:45.319Z,60.80
2017-09-23T21:22:11.802Z,60.60
2017-09-23T21:24:38.990Z,60.80
2017-09-23T21:27:05.451Z,60.80
2017-09-23T21:29:31.864Z,60.80
2017-09-23T21:31:58.318Z,61.30
2017-09-23T21:34:24.775Z,60.90
2017-09-23T21:36:51.209Z,61.10
2017-09-23T21:39:18.429Z,60.80
2017-09-23T21:41:44.846Z,60.70
2017-09-23T21:44:11.256Z,61.00
2017-09-23T21:46:37.713Z,61.30
2017-09-23T21:49:04.153Z,61.40
2017-09-23T21:51:30.598Z,61.20
2017-09-23T21:53:57.041Z,61.40
2017-09-23T21:56:23.522Z,61.40
2017-09-23T21:58:49.947Z,61.50
2017-09-23T22:01:16.410Z,61.30
2017-09-23T22:03:42.870Z,61.50
2017-09-23T22:06:09.317Z,61.50
2017-09-23T22:08:35.739Z,61.70
2017-09-23T22:11:02.953Z,61.90
2017-09-23T22:13:29.414Z,61.80
2017-09-23T22:15:55.893Z,62.20
2017-09-23T22:18:22.348Z,64.80
2017-09-23T22:20:48.796Z,64.80
2017-09-23T22:23:15.247Z,65.70
2017-09-23T22:25:41.690Z,65.80
2017-09-23T22:28:08.144Z,65.20
2017-09-23T22:30:34.605Z,64.80
2017-09-23T22:33:01.029Z,64.50
2017-09-23T22:35:27.466Z,64.00
2017-09-23T22:37:53.949Z,63.80
2017-09-23T22:40:20.397Z,63.90
2017-09-23T22:42:47.561Z,64.20
2017-09-23T22:45:14.735Z,64.20
2017-09-23T22:47:41.193Z,64.20
2017-09-23T22:50:07.646Z,64.30
2017-09-23T22:52:34.086Z,64.30
2017-09-23T22:55:00.590Z,64.40
2017-09-23T22:57:27.789Z,65.80
2017-09-23T22:59:54.981Z,65.90
2017-09-23T23:02:21.417Z,65.90
2017-09-23T23:04:47.873Z,68.10
2017-09-23T23:07:15.049Z,69.50
2017-09-23T23:09:42.797Z,69.40
2017-09-23T23:12:09.358Z,69.40
2017-09-23T23:14:36.533Z,69.00
2017-09-23T23:17:04.497Z,69.40
2017-09-23T23:19:31.101Z,69.40
2017-09-23T23:21:57.512Z,69.40
2017-09-23T23:24:23.954Z,68.80
2017-09-23T23:26:50.373Z,68.30
2017-09-23T23:29:17.618Z,68.70
2017-09-23T23:31:44.106Z,68.70
2017-09-23T23:34:11.270Z,68.40
2017-09-23T23:36:37.681Z,68.20
2017-09-23T23:39:04.873Z,68.90
2017-09-23T23:41:31.307Z,68.90
2017-09-23T23:43:57.779Z,69.70
2017-09-23T23:46:24.216Z,69.40
2017-09-23T23:48:50.631Z,69.40
2017-09-23T23:51:17.094Z,68.40
2017-09-23T23:53:44.247Z,69.40
2017-09-23T23:56:11.421Z,69.60
2017-09-23T23:58:37.865Z,69.60
